Weather at Holland Landing Airpark

Public forecast

Using degrees Celsius for public forecast. Weather courtesy of forecast.io.

Closest aviation weather report (METAR) to Holland Landing Airpark

Closest report is Lester B. Pearson International Airport, 25.4 nm (47.1 km) SSW.

2023/01/28 20:00 (retrieved 15 minutes ago)

CYYZ 282000Z 28009KT 15SM SCT035 BKN110 OVC220 M00/M07 A3018 RMK SC3AS3CI2 SLP228

Closest aviation forecast (TAF) to Holland Landing Airpark

Closest forecast is Lester B. Pearson International Airport, 25.4 nm (47.1 km) SSW.

2023/01/28 18:42 (retrieved 2 hours ago)

TAF CYYZ 281740Z 2818/2924 27010G20KT P6SM OVC030 FM282000 25010KT P6SM SCT030 BKN130 FM290200 02005KT P6SM OVC030 FM290400 02010KT 1 1/2SM -SN OVC008 PROB30 2907/2913 3/4SM -SN VV006 FM291300 02010KT 2SM -SN OVC008 TEMPO 2913/2918 4SM -SN OVC012 FM291800 01007KT 3/4SM -SN VV007 PROB30 2918/2922 1/2SM SHSN FM292200 35012KT P6SM SCT012 BKN030 RMK NXT FCST BY 282100Z